sensor_id;sensor_type;location;lat;lon;timestamp;P1;durP1;ratioP1;P2;durP2;ratioP2
27539;SDS011;15906;52.046;4.724;2023-10-19T00:01:54;31.02;;;19.50;;
27539;SDS011;15906;52.046;4.724;2023-10-19T00:04:20;28.50;;;18.85;;
27539;SDS011;15906;52.046;4.724;2023-10-19T00:06:47;29.88;;;18.55;;
27539;SDS011;15906;52.046;4.724;2023-10-19T00:09:13;31.63;;;20.02;;
27539;SDS011;15906;52.046;4.724;2023-10-19T00:11:40;30.83;;;20.40;;
27539;SDS011;15906;52.046;4.724;2023-10-19T00:14:06;29.73;;;19.88;;
27539;SDS011;15906;52.046;4.724;2023-10-19T00:16:44;31.33;;;19.98;;
27539;SDS011;15906;52.046;4.724;2023-10-19T00:19:18;30.40;;;19.33;;
27539;SDS011;15906;52.046;4.724;2023-10-19T00:21:45;34.13;;;20.52;;
27539;SDS011;15906;52.046;4.724;2023-10-19T00:24:19;41.92;;;20.52;;
27539;SDS011;15906;52.046;4.724;2023-10-19T00:26:48;32.88;;;21.02;;
27539;SDS011;15906;52.046;4.724;2023-10-19T00:29:14;32.70;;;21.20;;
27539;SDS011;15906;52.046;4.724;2023-10-19T00:31:55;36.60;;;20.73;;
27539;SDS011;15906;52.046;4.724;2023-10-19T00:34:23;33.92;;;20.40;;
27539;SDS011;15906;52.046;4.724;2023-10-19T00:36:50;35.92;;;21.35;;
27539;SDS011;15906;52.046;4.724;2023-10-19T00:39:16;32.78;;;20.33;;
27539;SDS011;15906;52.046;4.724;2023-10-19T00:41:52;34.35;;;20.52;;
27539;SDS011;15906;52.046;4.724;2023-10-19T00:44:22;33.60;;;21.65;;
27539;SDS011;15906;52.046;4.724;2023-10-19T00:46:55;32.50;;;19.67;;
27539;SDS011;15906;52.046;4.724;2023-10-19T00:49:29;32.42;;;19.10;;
27539;SDS011;15906;52.046;4.724;2023-10-19T00:51:56;31.30;;;19.13;;
27539;SDS011;15906;52.046;4.724;2023-10-19T00:54:37;34.08;;;20.83;;
27539;SDS011;15906;52.046;4.724;2023-10-19T00:57:19;33.08;;;18.50;;
27539;SDS011;15906;52.046;4.724;2023-10-19T00:59:45;32.67;;;20.77;;
27539;SDS011;15906;52.046;4.724;2023-10-19T01:02:20;42.53;;;21.90;;
27539;SDS011;15906;52.046;4.724;2023-10-19T01:04:49;31.42;;;18.20;;
27539;SDS011;15906;52.046;4.724;2023-10-19T01:07:26;32.42;;;19.08;;
27539;SDS011;15906;52.046;4.724;2023-10-19T01:09:59;33.83;;;19.83;;
27539;SDS011;15906;52.046;4.724;2023-10-19T01:12:26;30.58;;;19.00;;
27539;SDS011;15906;52.046;4.724;2023-10-19T01:17:30;33.25;;;20.98;;
27539;SDS011;15906;52.046;4.724;2023-10-19T01:19:56;31.83;;;19.90;;
27539;SDS011;15906;52.046;4.724;2023-10-19T01:22:23;36.03;;;20.25;;
27539;SDS011;15906;52.046;4.724;2023-10-19T01:24:51;33.97;;;19.45;;
27539;SDS011;15906;52.046;4.724;2023-10-19T01:27:18;31.90;;;19.35;;
27539;SDS011;15906;52.046;4.724;2023-10-19T01:29:45;31.13;;;19.95;;
27539;SDS011;15906;52.046;4.724;2023-10-19T01:32:11;29.27;;;18.77;;
27539;SDS011;15906;52.046;4.724;2023-10-19T01:34:40;33.78;;;20.50;;
27539;SDS011;15906;52.046;4.724;2023-10-19T01:37:05;34.30;;;18.60;;
27539;SDS011;15906;52.046;4.724;2023-10-19T01:39:31;28.25;;;17.98;;
27539;SDS011;15906;52.046;4.724;2023-10-19T01:42:02;32.60;;;18.33;;
27539;SDS011;15906;52.046;4.724;2023-10-19T01:44:29;28.85;;;16.35;;
27539;SDS011;15906;52.046;4.724;2023-10-19T01:46:55;25.58;;;16.10;;
27539;SDS011;15906;52.046;4.724;2023-10-19T01:49:21;24.98;;;13.13;;
27539;SDS011;15906;52.046;4.724;2023-10-19T01:51:53;21.88;;;12.88;;
27539;SDS011;15906;52.046;4.724;2023-10-19T01:54:19;18.08;;;10.85;;
27539;SDS011;15906;52.046;4.724;2023-10-19T01:56:53;17.67;;;10.50;;
27539;SDS011;15906;52.046;4.724;2023-10-19T01:59:22;16.52;;;9.30;;
27539;SDS011;15906;52.046;4.724;2023-10-19T02:01:52;14.20;;;8.45;;
27539;SDS011;15906;52.046;4.724;2023-10-19T02:04:19;11.70;;;7.57;;
27539;SDS011;15906;52.046;4.724;2023-10-19T02:06:46;15.15;;;7.60;;
27539;SDS011;15906;52.046;4.724;2023-10-19T02:09:13;14.05;;;7.00;;
27539;SDS011;15906;52.046;4.724;2023-10-19T02:11:48;13.13;;;6.45;;
27539;SDS011;15906;52.046;4.724;2023-10-19T02:14:17;9.27;;;5.20;;
27539;SDS011;15906;52.046;4.724;2023-10-19T02:16:45;11.15;;;4.75;;
27539;SDS011;15906;52.046;4.724;2023-10-19T02:19:18;5.80;;;4.38;;
27539;SDS011;15906;52.046;4.724;2023-10-19T02:21:47;0.10;;;0.10;;
27539;SDS011;15906;52.046;4.724;2023-10-19T02:24:24;0.20;;;0.20;;
27539;SDS011;15906;52.046;4.724;2023-10-19T02:26:51;0.10;;;0.10;;
27539;SDS011;15906;52.046;4.724;2023-10-19T02:29:18;0.10;;;0.10;;
27539;SDS011;15906;52.046;4.724;2023-10-19T02:31:44;0.10;;;0.10;;
27539;SDS011;15906;52.046;4.724;2023-10-19T02:34:12;0.77;;;0.60;;
27539;SDS011;15906;52.046;4.724;2023-10-19T02:36:40;0.43;;;0.43;;
27539;SDS011;15906;52.046;4.724;2023-10-19T02:39:07;6.13;;;2.10;;
27539;SDS011;15906;52.046;4.724;2023-10-19T02:41:40;4.70;;;2.10;;
27539;SDS011;15906;52.046;4.724;2023-10-19T02:44:08;4.57;;;1.85;;
27539;SDS011;15906;52.046;4.724;2023-10-19T02:46:43;5.80;;;2.35;;
27539;SDS011;15906;52.046;4.724;2023-10-19T02:49:14;6.97;;;2.08;;
27539;SDS011;15906;52.046;4.724;2023-10-19T02:51:43;8.82;;;2.47;;
27539;SDS011;15906;52.046;4.724;2023-10-19T02:54:10;3.17;;;1.60;;
27539;SDS011;15906;52.046;4.724;2023-10-19T02:56:44;3.10;;;1.92;;
27539;SDS011;15906;52.046;4.724;2023-10-19T02:59:14;3.80;;;1.60;;
27539;SDS011;15906;52.046;4.724;2023-10-19T03:01:47;3.20;;;1.67;;
27539;SDS011;15906;52.046;4.724;2023-10-19T03:04:39;4.85;;;1.52;;
27539;SDS011;15906;52.046;4.724;2023-10-19T03:07:06;3.92;;;1.75;;
27539;SDS011;15906;52.046;4.724;2023-10-19T03:09:38;6.97;;;2.13;;
27539;SDS011;15906;52.046;4.724;2023-10-19T03:12:19;6.72;;;2.63;;
27539;SDS011;15906;52.046;4.724;2023-10-19T03:14:45;10.82;;;3.47;;
27539;SDS011;15906;52.046;4.724;2023-10-19T03:17:13;7.60;;;2.97;;
27539;SDS011;15906;52.046;4.724;2023-10-19T03:19:39;7.80;;;3.90;;
27539;SDS011;15906;52.046;4.724;2023-10-19T03:22:04;12.27;;;4.45;;
27539;SDS011;15906;52.046;4.724;2023-10-19T03:24:34;8.65;;;4.68;;
27539;SDS011;15906;52.046;4.724;2023-10-19T03:27:06;12.63;;;4.30;;
27539;SDS011;15906;52.046;4.724;2023-10-19T03:29:46;2.45;;;1.35;;
27539;SDS011;15906;52.046;4.724;2023-10-19T03:32:24;1.05;;;1.00;;
27539;SDS011;15906;52.046;4.724;2023-10-19T03:34:57;0.40;;;0.38;;
27539;SDS011;15906;52.046;4.724;2023-10-19T03:37:28;0.47;;;0.47;;
27539;SDS011;15906;52.046;4.724;2023-10-19T03:39:57;0.10;;;0.10;;
27539;SDS011;15906;52.046;4.724;2023-10-19T03:42:23;0.52;;;0.52;;
27539;SDS011;15906;52.046;4.724;2023-10-19T03:44:57;0.10;;;0.10;;
27539;SDS011;15906;52.046;4.724;2023-10-19T03:47:24;0.10;;;0.10;;
27539;SDS011;15906;52.046;4.724;2023-10-19T03:50:03;0.10;;;0.10;;
27539;SDS011;15906;52.046;4.724;2023-10-19T03:52:32;0.10;;;0.10;;
27539;SDS011;15906;52.046;4.724;2023-10-19T03:55:02;0.10;;;0.10;;
27539;SDS011;15906;52.046;4.724;2023-10-19T03:57:31;0.10;;;0.10;;
27539;SDS011;15906;52.046;4.724;2023-10-19T04:00:00;0.20;;;0.20;;
27539;SDS011;15906;52.046;4.724;2023-10-19T04:02:25;0.15;;;0.15;;
27539;SDS011;15906;52.046;4.724;2023-10-19T04:04:54;0.10;;;0.10;;
27539;SDS011;15906;52.046;4.724;2023-10-19T04:07:20;0.10;;;0.10;;
27539;SDS011;15906;52.046;4.724;2023-10-19T04:09:55;0.10;;;0.10;;
27539;SDS011;15906;52.046;4.724;2023-10-19T04:12:39;0.10;;;0.10;;
27539;SDS011;15906;52.046;4.724;2023-10-19T04:15:07;0.10;;;0.10;;
27539;SDS011;15906;52.046;4.724;2023-10-19T04:17:45;0.10;;;0.10;;
27539;SDS011;15906;52.046;4.724;2023-10-19T04:20:16;0.10;;;0.10;;
27539;SDS011;15906;52.046;4.724;2023-10-19T04:22:42;0.10;;;0.10;;
27539;SDS011;15906;52.046;4.724;2023-10-19T04:25:08;0.10;;;0.10;;
27539;SDS011;15906;52.046;4.724;2023-10-19T04:27:37;0.10;;;0.10;;
27539;SDS011;15906;52.046;4.724;2023-10-19T04:30:07;0.40;;;0.40;;
27539;SDS011;15906;52.046;4.724;2023-10-19T04:32:47;0.10;;;0.10;;
27539;SDS011;15906;52.046;4.724;2023-10-19T04:35:14;0.10;;;0.10;;
27539;SDS011;15906;52.046;4.724;2023-10-19T04:37:49;0.10;;;0.10;;
27539;SDS011;15906;52.046;4.724;2023-10-19T04:40:17;0.10;;;0.10;;
27539;SDS011;15906;52.046;4.724;2023-10-19T04:42:48;0.17;;;0.17;;
27539;SDS011;15906;52.046;4.724;2023-10-19T04:45:15;0.10;;;0.10;;
27539;SDS011;15906;52.046;4.724;2023-10-19T04:47:40;0.10;;;0.10;;
27539;SDS011;15906;52.046;4.724;2023-10-19T04:50:06;0.10;;;0.10;;
27539;SDS011;15906;52.046;4.724;2023-10-19T04:52:33;0.10;;;0.10;;
27539;SDS011;15906;52.046;4.724;2023-10-19T04:54:59;0.10;;;0.10;;
27539;SDS011;15906;52.046;4.724;2023-10-19T04:57:25;0.10;;;0.10;;
27539;SDS011;15906;52.046;4.724;2023-10-19T04:59:53;0.10;;;0.10;;
27539;SDS011;15906;52.046;4.724;2023-10-19T05:02:19;0.10;;;0.10;;
27539;SDS011;15906;52.046;4.724;2023-10-19T05:04:44;0.10;;;0.10;;
27539;SDS011;15906;52.046;4.724;2023-10-19T05:07:10;0.10;;;0.10;;
27539;SDS011;15906;52.046;4.724;2023-10-19T05:09:43;0.10;;;0.10;;
27539;SDS011;15906;52.046;4.724;2023-10-19T05:12:09;0.20;;;0.20;;
27539;SDS011;15906;52.046;4.724;2023-10-19T05:14:36;0.10;;;0.10;;
27539;SDS011;15906;52.046;4.724;2023-10-19T05:17:06;0.10;;;0.10;;
27539;SDS011;15906;52.046;4.724;2023-10-19T05:19:34;0.10;;;0.10;;
27539;SDS011;15906;52.046;4.724;2023-10-19T05:22:01;0.30;;;0.20;;
27539;SDS011;15906;52.046;4.724;2023-10-19T05:24:28;0.10;;;0.10;;
27539;SDS011;15906;52.046;4.724;2023-10-19T05:26:54;0.17;;;0.17;;
27539;SDS011;15906;52.046;4.724;2023-10-19T05:29:20;0.10;;;0.10;;
27539;SDS011;15906;52.046;4.724;2023-10-19T05:31:46;0.10;;;0.10;;
27539;SDS011;15906;52.046;4.724;2023-10-19T05:34:11;0.10;;;0.10;;
27539;SDS011;15906;52.046;4.724;2023-10-19T05:36:37;0.10;;;0.10;;
27539;SDS011;15906;52.046;4.724;2023-10-19T05:39:04;0.10;;;0.10;;
27539;SDS011;15906;52.046;4.724;2023-10-19T05:41:32;0.10;;;0.10;;
27539;SDS011;15906;52.046;4.724;2023-10-19T05:43:59;0.10;;;0.10;;
27539;SDS011;15906;52.046;4.724;2023-10-19T05:46:24;0.10;;;0.10;;
27539;SDS011;15906;52.046;4.724;2023-10-19T05:48:50;0.20;;;0.20;;
27539;SDS011;15906;52.046;4.724;2023-10-19T05:51:17;0.10;;;0.10;;
27539;SDS011;15906;52.046;4.724;2023-10-19T05:53:43;0.20;;;0.20;;
27539;SDS011;15906;52.046;4.724;2023-10-19T05:56:09;0.10;;;0.10;;
27539;SDS011;15906;52.046;4.724;2023-10-19T05:58:36;0.10;;;0.10;;
27539;SDS011;15906;52.046;4.724;2023-10-19T06:01:01;0.10;;;0.10;;
27539;SDS011;15906;52.046;4.724;2023-10-19T06:03:27;0.10;;;0.10;;
27539;SDS011;15906;52.046;4.724;2023-10-19T06:05:53;0.10;;;0.10;;
27539;SDS011;15906;52.046;4.724;2023-10-19T06:08:21;0.20;;;0.20;;
27539;SDS011;15906;52.046;4.724;2023-10-19T06:10:53;0.10;;;0.10;;
27539;SDS011;15906;52.046;4.724;2023-10-19T06:13:19;0.10;;;0.10;;
27539;SDS011;15906;52.046;4.724;2023-10-19T06:15:47;0.10;;;0.10;;
27539;SDS011;15906;52.046;4.724;2023-10-19T06:18:13;0.10;;;0.10;;
27539;SDS011;15906;52.046;4.724;2023-10-19T06:20:42;0.10;;;0.10;;
27539;SDS011;15906;52.046;4.724;2023-10-19T06:23:09;0.10;;;0.10;;
27539;SDS011;15906;52.046;4.724;2023-10-19T06:25:36;0.15;;;0.15;;
27539;SDS011;15906;52.046;4.724;2023-10-19T06:28:02;0.10;;;0.10;;
27539;SDS011;15906;52.046;4.724;2023-10-19T06:30:29;0.30;;;0.30;;
27539;SDS011;15906;52.046;4.724;2023-10-19T06:32:55;0.10;;;0.10;;
27539;SDS011;15906;52.046;4.724;2023-10-19T06:35:25;0.10;;;0.10;;
27539;SDS011;15906;52.046;4.724;2023-10-19T06:37:52;0.10;;;0.10;;
27539;SDS011;15906;52.046;4.724;2023-10-19T06:40:20;0.10;;;0.10;;
27539;SDS011;15906;52.046;4.724;2023-10-19T06:42:47;0.10;;;0.10;;
27539;SDS011;15906;52.046;4.724;2023-10-19T06:45:14;0.10;;;0.10;;
27539;SDS011;15906;52.046;4.724;2023-10-19T06:47:44;0.10;;;0.10;;
27539;SDS011;15906;52.046;4.724;2023-10-19T06:50:12;0.10;;;0.10;;
27539;SDS011;15906;52.046;4.724;2023-10-19T06:52:40;0.10;;;0.10;;
27539;SDS011;15906;52.046;4.724;2023-10-19T06:55:07;0.10;;;0.10;;
27539;SDS011;15906;52.046;4.724;2023-10-19T06:58:00;0.10;;;0.10;;
27539;SDS011;15906;52.046;4.724;2023-10-19T07:00:26;0.10;;;0.10;;
27539;SDS011;15906;52.046;4.724;2023-10-19T07:02:52;0.10;;;0.10;;
27539;SDS011;15906;52.046;4.724;2023-10-19T07:05:20;0.50;;;0.50;;
27539;SDS011;15906;52.046;4.724;2023-10-19T07:07:47;0.10;;;0.10;;
27539;SDS011;15906;52.046;4.724;2023-10-19T07:10:14;0.10;;;0.10;;
27539;SDS011;15906;52.046;4.724;2023-10-19T07:12:44;0.10;;;0.10;;
27539;SDS011;15906;52.046;4.724;2023-10-19T07:15:11;0.10;;;0.10;;
27539;SDS011;15906;52.046;4.724;2023-10-19T07:17:40;0.10;;;0.10;;
27539;SDS011;15906;52.046;4.724;2023-10-19T07:20:06;0.10;;;0.10;;
27539;SDS011;15906;52.046;4.724;2023-10-19T07:22:34;0.10;;;0.10;;
27539;SDS011;15906;52.046;4.724;2023-10-19T07:25:04;0.10;;;0.10;;
27539;SDS011;15906;52.046;4.724;2023-10-19T07:27:31;0.10;;;0.10;;
27539;SDS011;15906;52.046;4.724;2023-10-19T07:29:57;0.10;;;0.10;;
27539;SDS011;15906;52.046;4.724;2023-10-19T07:32:24;0.20;;;0.20;;
27539;SDS011;15906;52.046;4.724;2023-10-19T07:34:49;0.10;;;0.10;;
27539;SDS011;15906;52.046;4.724;2023-10-19T07:37:15;0.10;;;0.10;;
27539;SDS011;15906;52.046;4.724;2023-10-19T07:39:47;0.10;;;0.10;;
27539;SDS011;15906;52.046;4.724;2023-10-19T07:42:14;0.10;;;0.10;;
27539;SDS011;15906;52.046;4.724;2023-10-19T07:44:40;0.10;;;0.10;;
27539;SDS011;15906;52.046;4.724;2023-10-19T07:47:06;0.10;;;0.10;;
27539;SDS011;15906;52.046;4.724;2023-10-19T07:49:34;0.13;;;0.13;;
27539;SDS011;15906;52.046;4.724;2023-10-19T07:52:03;0.10;;;0.10;;
27539;SDS011;15906;52.046;4.724;2023-10-19T07:54:32;0.10;;;0.10;;
27539;SDS011;15906;52.046;4.724;2023-10-19T07:57:00;0.10;;;0.10;;
27539;SDS011;15906;52.046;4.724;2023-10-19T07:59:30;0.10;;;0.10;;
27539;SDS011;15906;52.046;4.724;2023-10-19T08:01:59;0.10;;;0.10;;
27539;SDS011;15906;52.046;4.724;2023-10-19T08:04:29;0.10;;;0.10;;
27539;SDS011;15906;52.046;4.724;2023-10-19T08:06:55;0.13;;;0.13;;
27539;SDS011;15906;52.046;4.724;2023-10-19T08:09:22;0.10;;;0.10;;
27539;SDS011;15906;52.046;4.724;2023-10-19T08:11:50;0.10;;;0.10;;
27539;SDS011;15906;52.046;4.724;2023-10-19T08:14:24;0.10;;;0.10;;
27539;SDS011;15906;52.046;4.724;2023-10-19T08:16:50;0.10;;;0.10;;
27539;SDS011;15906;52.046;4.724;2023-10-19T08:19:17;0.10;;;0.10;;
27539;SDS011;15906;52.046;4.724;2023-10-19T08:21:43;0.10;;;0.10;;
27539;SDS011;15906;52.046;4.724;2023-10-19T08:24:09;0.10;;;0.10;;
27539;SDS011;15906;52.046;4.724;2023-10-19T08:26:42;0.30;;;0.30;;
27539;SDS011;15906;52.046;4.724;2023-10-19T08:29:08;0.10;;;0.10;;
27539;SDS011;15906;52.046;4.724;2023-10-19T08:31:40;0.10;;;0.10;;
27539;SDS011;15906;52.046;4.724;2023-10-19T08:34:07;0.10;;;0.10;;
27539;SDS011;15906;52.046;4.724;2023-10-19T08:36:34;0.10;;;0.10;;
27539;SDS011;15906;52.046;4.724;2023-10-19T08:39:02;0.10;;;0.10;;
27539;SDS011;15906;52.046;4.724;2023-10-19T08:41:35;0.10;;;0.10;;
27539;SDS011;15906;52.046;4.724;2023-10-19T08:44:02;0.10;;;0.10;;
27539;SDS011;15906;52.046;4.724;2023-10-19T08:46:35;1.45;;;0.90;;
27539;SDS011;15906;52.046;4.724;2023-10-19T08:49:13;0.10;;;0.10;;
27539;SDS011;15906;52.046;4.724;2023-10-19T08:51:42;0.10;;;0.10;;
27539;SDS011;15906;52.046;4.724;2023-10-19T08:54:12;0.10;;;0.10;;
27539;SDS011;15906;52.046;4.724;2023-10-19T08:56:38;0.10;;;0.10;;
27539;SDS011;15906;52.046;4.724;2023-10-19T08:59:09;0.00;;;0.00;;
27539;SDS011;15906;52.046;4.724;2023-10-19T09:01:40;0.10;;;0.10;;
27539;SDS011;15906;52.046;4.724;2023-10-19T09:04:09;0.10;;;0.10;;
27539;SDS011;15906;52.046;4.724;2023-10-19T09:06:35;0.10;;;0.10;;
27539;SDS011;15906;52.046;4.724;2023-10-19T09:09:08;0.10;;;0.10;;
27539;SDS011;15906;52.046;4.724;2023-10-19T09:11:38;0.10;;;0.10;;
27539;SDS011;15906;52.046;4.724;2023-10-19T09:14:04;0.10;;;0.10;;
27539;SDS011;15906;52.046;4.724;2023-10-19T09:16:29;0.10;;;0.10;;
27539;SDS011;15906;52.046;4.724;2023-10-19T09:18:56;0.10;;;0.10;;
27539;SDS011;15906;52.046;4.724;2023-10-19T09:21:22;0.47;;;0.43;;
27539;SDS011;15906;52.046;4.724;2023-10-19T09:23:51;0.28;;;0.28;;
27539;SDS011;15906;52.046;4.724;2023-10-19T09:26:21;0.10;;;0.10;;
27539;SDS011;15906;52.046;4.724;2023-10-19T09:28:51;0.10;;;0.10;;
27539;SDS011;15906;52.046;4.724;2023-10-19T09:31:19;0.10;;;0.10;;
27539;SDS011;15906;52.046;4.724;2023-10-19T09:33:46;0.10;;;0.10;;
27539;SDS011;15906;52.046;4.724;2023-10-19T09:36:14;0.10;;;0.10;;
27539;SDS011;15906;52.046;4.724;2023-10-19T09:41:19;0.40;;;0.40;;
27539;SDS011;15906;52.046;4.724;2023-10-19T09:43:53;0.10;;;0.10;;
27539;SDS011;15906;52.046;4.724;2023-10-19T09:46:29;0.10;;;0.10;;
27539;SDS011;15906;52.046;4.724;2023-10-19T09:48:56;0.10;;;0.10;;
27539;SDS011;15906;52.046;4.724;2023-10-19T09:51:22;0.35;;;0.35;;
27539;SDS011;15906;52.046;4.724;2023-10-19T09:53:51;0.10;;;0.10;;
27539;SDS011;15906;52.046;4.724;2023-10-19T09:56:34;0.10;;;0.10;;
27539;SDS011;15906;52.046;4.724;2023-10-19T09:59:06;0.10;;;0.10;;
27539;SDS011;15906;52.046;4.724;2023-10-19T10:02:07;0.10;;;0.10;;
27539;SDS011;15906;52.046;4.724;2023-10-19T10:04:40;0.10;;;0.10;;
27539;SDS011;15906;52.046;4.724;2023-10-19T10:07:07;2.38;;;0.95;;
27539;SDS011;15906;52.046;4.724;2023-10-19T10:09:35;0.10;;;0.10;;
27539;SDS011;15906;52.046;4.724;2023-10-19T10:12:18;0.10;;;0.10;;
27539;SDS011;15906;52.046;4.724;2023-10-19T10:14:58;0.15;;;0.15;;
27539;SDS011;15906;52.046;4.724;2023-10-19T10:17:32;0.10;;;0.10;;
27539;SDS011;15906;52.046;4.724;2023-10-19T10:22:40;0.10;;;0.10;;
27539;SDS011;15906;52.046;4.724;2023-10-19T10:25:25;0.10;;;0.10;;
27539;SDS011;15906;52.046;4.724;2023-10-19T10:27:52;0.10;;;0.10;;
27539;SDS011;15906;52.046;4.724;2023-10-19T10:30:19;0.10;;;0.10;;
27539;SDS011;15906;52.046;4.724;2023-10-19T10:32:45;0.08;;;0.08;;
27539;SDS011;15906;52.046;4.724;2023-10-19T10:38:01;0.10;;;0.10;;
27539;SDS011;15906;52.046;4.724;2023-10-19T10:40:41;0.10;;;0.10;;
27539;SDS011;15906;52.046;4.724;2023-10-19T10:43:15;0.35;;;0.35;;
27539;SDS011;15906;52.046;4.724;2023-10-19T10:45:41;0.38;;;0.35;;
27539;SDS011;15906;52.046;4.724;2023-10-19T10:48:12;0.10;;;0.10;;
27539;SDS011;15906;52.046;4.724;2023-10-19T10:50:44;0.10;;;0.10;;
27539;SDS011;15906;52.046;4.724;2023-10-19T10:53:11;0.40;;;0.40;;
27539;SDS011;15906;52.046;4.724;2023-10-19T10:55:38;0.10;;;0.10;;
27539;SDS011;15906;52.046;4.724;2023-10-19T10:58:06;0.10;;;0.10;;
27539;SDS011;15906;52.046;4.724;2023-10-19T11:00:33;0.10;;;0.10;;
27539;SDS011;15906;52.046;4.724;2023-10-19T11:03:00;0.10;;;0.10;;
27539;SDS011;15906;52.046;4.724;2023-10-19T11:05:29;0.10;;;0.10;;
27539;SDS011;15906;52.046;4.724;2023-10-19T11:08:06;0.10;;;0.10;;
27539;SDS011;15906;52.046;4.724;2023-10-19T11:10:32;0.20;;;0.20;;
27539;SDS011;15906;52.046;4.724;2023-10-19T11:13:02;0.20;;;0.20;;
27539;SDS011;15906;52.046;4.724;2023-10-19T11:15:32;0.10;;;0.10;;
27539;SDS011;15906;52.046;4.724;2023-10-19T11:17:58;0.20;;;0.20;;
27539;SDS011;15906;52.046;4.724;2023-10-19T11:20:25;0.10;;;0.10;;
27539;SDS011;15906;52.046;4.724;2023-10-19T11:22:55;0.10;;;0.10;;
27539;SDS011;15906;52.046;4.724;2023-10-19T11:25:24;0.10;;;0.10;;
27539;SDS011;15906;52.046;4.724;2023-10-19T11:27:53;0.10;;;0.10;;
27539;SDS011;15906;52.046;4.724;2023-10-19T11:30:22;0.10;;;0.10;;
27539;SDS011;15906;52.046;4.724;2023-10-19T11:32:49;0.10;;;0.10;;
27539;SDS011;15906;52.046;4.724;2023-10-19T11:35:18;0.10;;;0.10;;
27539;SDS011;15906;52.046;4.724;2023-10-19T11:37:48;0.10;;;0.10;;
27539;SDS011;15906;52.046;4.724;2023-10-19T11:40:15;0.10;;;0.10;;
27539;SDS011;15906;52.046;4.724;2023-10-19T11:42:41;0.00;;;0.00;;
27539;SDS011;15906;52.046;4.724;2023-10-19T11:45:07;0.10;;;0.10;;
27539;SDS011;15906;52.046;4.724;2023-10-19T11:47:34;0.10;;;0.10;;
27539;SDS011;15906;52.046;4.724;2023-10-19T11:50:00;0.08;;;0.08;;
27539;SDS011;15906;52.046;4.724;2023-10-19T11:52:25;0.10;;;0.10;;
27539;SDS011;15906;52.046;4.724;2023-10-19T11:54:52;0.10;;;0.10;;
27539;SDS011;15906;52.046;4.724;2023-10-19T11:57:36;0.60;;;0.52;;
27539;SDS011;15906;52.046;4.724;2023-10-19T12:00:04;12.10;;;11.30;;
27539;SDS011;15906;52.046;4.724;2023-10-19T12:02:39;0.10;;;0.10;;
27539;SDS011;15906;52.046;4.724;2023-10-19T12:05:06;0.10;;;0.10;;
27539;SDS011;15906;52.046;4.724;2023-10-19T12:07:38;0.10;;;0.10;;
27539;SDS011;15906;52.046;4.724;2023-10-19T12:10:08;0.00;;;0.00;;
27539;SDS011;15906;52.046;4.724;2023-10-19T12:12:35;0.10;;;0.10;;
27539;SDS011;15906;52.046;4.724;2023-10-19T12:15:04;0.10;;;0.10;;
27539;SDS011;15906;52.046;4.724;2023-10-19T12:17:33;0.10;;;0.10;;
27539;SDS011;15906;52.046;4.724;2023-10-19T12:19:59;0.10;;;0.10;;
27539;SDS011;15906;52.046;4.724;2023-10-19T12:22:25;0.10;;;0.10;;
27539;SDS011;15906;52.046;4.724;2023-10-19T12:24:56;0.10;;;0.10;;
27539;SDS011;15906;52.046;4.724;2023-10-19T12:27:23;0.13;;;0.13;;
27539;SDS011;15906;52.046;4.724;2023-10-19T12:29:49;0.10;;;0.10;;
27539;SDS011;15906;52.046;4.724;2023-10-19T12:32:17;0.10;;;0.10;;
27539;SDS011;15906;52.046;4.724;2023-10-19T12:34:43;0.10;;;0.10;;
27539;SDS011;15906;52.046;4.724;2023-10-19T12:37:09;0.10;;;0.10;;
27539;SDS011;15906;52.046;4.724;2023-10-19T12:39:37;0.00;;;0.00;;
27539;SDS011;15906;52.046;4.724;2023-10-19T12:42:14;0.10;;;0.10;;
27539;SDS011;15906;52.046;4.724;2023-10-19T12:44:40;0.10;;;0.10;;
27539;SDS011;15906;52.046;4.724;2023-10-19T12:47:06;0.10;;;0.10;;
27539;SDS011;15906;52.046;4.724;2023-10-19T12:49:38;0.00;;;0.00;;
27539;SDS011;15906;52.046;4.724;2023-10-19T12:52:05;0.10;;;0.10;;
27539;SDS011;15906;52.046;4.724;2023-10-19T12:54:35;0.10;;;0.10;;
27539;SDS011;15906;52.046;4.724;2023-10-19T12:57:01;0.10;;;0.10;;
27539;SDS011;15906;52.046;4.724;2023-10-19T12:59:35;0.10;;;0.10;;
27539;SDS011;15906;52.046;4.724;2023-10-19T13:02:05;0.10;;;0.10;;
27539;SDS011;15906;52.046;4.724;2023-10-19T13:04:33;0.15;;;0.15;;
27539;SDS011;15906;52.046;4.724;2023-10-19T13:06:59;0.60;;;0.28;;
27539;SDS011;15906;52.046;4.724;2023-10-19T13:09:25;0.10;;;0.10;;
27539;SDS011;15906;52.046;4.724;2023-10-19T13:11:58;0.10;;;0.10;;
27539;SDS011;15906;52.046;4.724;2023-10-19T13:14:25;0.10;;;0.10;;
27539;SDS011;15906;52.046;4.724;2023-10-19T13:16:51;0.10;;;0.10;;
27539;SDS011;15906;52.046;4.724;2023-10-19T13:19:18;0.10;;;0.10;;
27539;SDS011;15906;52.046;4.724;2023-10-19T13:21:48;0.08;;;0.08;;
27539;SDS011;15906;52.046;4.724;2023-10-19T13:24:14;0.10;;;0.10;;
27539;SDS011;15906;52.046;4.724;2023-10-19T13:26:41;0.10;;;0.10;;
27539;SDS011;15906;52.046;4.724;2023-10-19T13:29:10;0.10;;;0.10;;
27539;SDS011;15906;52.046;4.724;2023-10-19T13:31:36;0.10;;;0.10;;
27539;SDS011;15906;52.046;4.724;2023-10-19T13:34:02;0.10;;;0.10;;
27539;SDS011;15906;52.046;4.724;2023-10-19T13:36:29;0.10;;;0.10;;
27539;SDS011;15906;52.046;4.724;2023-10-19T13:38:55;0.10;;;0.10;;
27539;SDS011;15906;52.046;4.724;2023-10-19T13:41:21;0.10;;;0.10;;
27539;SDS011;15906;52.046;4.724;2023-10-19T13:43:47;0.10;;;0.10;;
27539;SDS011;15906;52.046;4.724;2023-10-19T13:46:13;0.10;;;0.10;;
27539;SDS011;15906;52.046;4.724;2023-10-19T13:48:39;0.10;;;0.10;;
27539;SDS011;15906;52.046;4.724;2023-10-19T13:51:05;0.10;;;0.10;;
27539;SDS011;15906;52.046;4.724;2023-10-19T13:53:37;0.10;;;0.10;;
27539;SDS011;15906;52.046;4.724;2023-10-19T13:56:06;0.10;;;0.10;;
27539;SDS011;15906;52.046;4.724;2023-10-19T13:58:34;0.10;;;0.10;;
27539;SDS011;15906;52.046;4.724;2023-10-19T14:01:00;0.10;;;0.10;;
27539;SDS011;15906;52.046;4.724;2023-10-19T14:03:25;0.10;;;0.10;;
27539;SDS011;15906;52.046;4.724;2023-10-19T14:05:51;0.10;;;0.10;;
27539;SDS011;15906;52.046;4.724;2023-10-19T14:08:21;0.10;;;0.10;;
27539;SDS011;15906;52.046;4.724;2023-10-19T14:10:47;0.30;;;0.30;;
27539;SDS011;15906;52.046;4.724;2023-10-19T14:13:12;0.65;;;0.65;;
27539;SDS011;15906;52.046;4.724;2023-10-19T14:15:42;0.10;;;0.10;;
27539;SDS011;15906;52.046;4.724;2023-10-19T14:18:08;0.28;;;0.28;;
27539;SDS011;15906;52.046;4.724;2023-10-19T14:20:34;0.10;;;0.10;;
27539;SDS011;15906;52.046;4.724;2023-10-19T14:23:03;0.00;;;0.00;;
27539;SDS011;15906;52.046;4.724;2023-10-19T14:25:29;0.10;;;0.10;;
27539;SDS011;15906;52.046;4.724;2023-10-19T14:27:56;0.10;;;0.10;;
27539;SDS011;15906;52.046;4.724;2023-10-19T14:30:25;0.10;;;0.10;;
27539;SDS011;15906;52.046;4.724;2023-10-19T14:32:53;0.10;;;0.10;;
27539;SDS011;15906;52.046;4.724;2023-10-19T14:35:19;0.10;;;0.10;;
27539;SDS011;15906;52.046;4.724;2023-10-19T14:37:47;0.35;;;0.35;;
27539;SDS011;15906;52.046;4.724;2023-10-19T14:40:15;0.10;;;0.10;;
27539;SDS011;15906;52.046;4.724;2023-10-19T14:42:53;0.52;;;0.52;;
27539;SDS011;15906;52.046;4.724;2023-10-19T14:45:20;0.10;;;0.10;;
27539;SDS011;15906;52.046;4.724;2023-10-19T14:47:50;0.10;;;0.10;;
27539;SDS011;15906;52.046;4.724;2023-10-19T14:50:17;0.10;;;0.10;;
27539;SDS011;15906;52.046;4.724;2023-10-19T14:52:44;0.57;;;0.57;;
27539;SDS011;15906;52.046;4.724;2023-10-19T14:55:11;0.13;;;0.13;;
27539;SDS011;15906;52.046;4.724;2023-10-19T14:57:40;0.45;;;0.30;;
27539;SDS011;15906;52.046;4.724;2023-10-19T15:00:18;0.10;;;0.10;;
27539;SDS011;15906;52.046;4.724;2023-10-19T15:02:47;0.10;;;0.10;;
27539;SDS011;15906;52.046;4.724;2023-10-19T15:05:15;0.10;;;0.10;;